Time;durP1;ratioP1;P1;durP2;ratioP2;P2;SDS_P1;SDS_P2;PMS_P1;PMS_P2;Temp;Humidity;BMP_temperature;BMP_pressure;BME280_temperature;BME280_humidity;BME280_pressure;Samples;Min_cycle;Max_cycle;Signal;HPM_P1;HPM_P2
2022/10/04 00:01:08;;;;;;;18.57;7.97;;;;;;;;;;6267013;22;20504;-82
2022/10/04 00:03:38;;;;;;;29.00;8.63;;;;;;;;;;6241409;22;20235;-82
2022/10/04 00:06:07;;;;;;;14.40;7.80;;;;;;;;;;6241775;22;20248;-83
2022/10/04 00:08:41;;;;;;;22.33;7.70;;;;;;;;;;6270735;22;20690;-83
2022/10/04 00:11:15;;;;;;;17.60;8.17;;;;;;;;;;6271136;22;20180;-83
2022/10/04 00:13:47;;;;;;;18.90;7.77;;;;;;;;;;6269696;22;20157;-82
2022/10/04 00:16:22;;;;;;;15.63;8.40;;;;;;;;;;6241939;22;20648;-82
2022/10/04 00:18:50;;;;;;;17.67;8.13;;;;;;;;;;6268655;22;20544;-83
2022/10/04 00:21:18;;;;;;;16.40;8.10;;;;;;;;;;6268253;22;20276;-83
2022/10/04 00:23:46;;;;;;;18.97;8.23;;;;;;;;;;6269985;22;20264;-83
2022/10/04 00:26:37;;;;;;;17.50;8.00;;;;;;;;;;6268877;22;20263;-83
2022/10/04 00:29:19;;;;;;;28.10;10.17;;;;;;;;;;6242184;22;20177;-83
2022/10/04 00:32:01;;;;;;;25.73;9.43;;;;;;;;;;6241772;22;20596;-83
2022/10/04 00:34:48;;;;;;;31.30;8.83;;;;;;;;;;6266247;22;20177;-83
2022/10/04 00:37:16;;;;;;;45.47;10.80;;;;;;;;;;6269499;22;20205;-82
2022/10/04 00:39:44;;;;;;;31.40;9.20;;;;;;;;;;6245211;22;20197;-82
2022/10/04 00:42:42;;;;;;;32.73;9.87;;;;;;;;;;6272907;22;20174;-82
2022/10/04 00:45:27;;;;;;;51.87;12.73;;;;;;;;;;6274410;22;20150;-83
2022/10/04 00:48:12;;;;;;;30.13;8.07;;;;;;;;;;6246920;22;20204;-83
2022/10/04 00:50:40;;;;;;;34.43;8.70;;;;;;;;;;6246665;22;20177;-82
2022/10/04 00:53:16;;;;;;;33.93;8.90;;;;;;;;;;6247715;22;20219;-82
2022/10/04 00:55:47;;;;;;;20.03;8.73;;;;;;;;;;6275097;22;20169;-82
2022/10/04 00:58:17;;;;;;;23.77;8.57;;;;;;;;;;6277114;22;20198;-84
2022/10/04 01:00:45;;;;;;;19.40;8.10;;;;;;;;;;6279799;22;20450;-83
2022/10/04 01:03:16;;;;;;;25.57;7.90;;;;;;;;;;6279266;22;20344;-84
2022/10/04 01:05:45;;;;;;;14.93;7.03;;;;;;;;;;6281950;22;20184;-83
2022/10/04 01:08:14;;;;;;;23.07;7.50;;;;;;;;;;6282104;22;20204;-83
2022/10/04 01:10:43;;;;;;;14.03;7.47;;;;;;;;;;6281877;22;20225;-83
2022/10/04 01:13:13;;;;;;;22.13;9.00;;;;;;;;;;6242419;22;20174;-83
2022/10/04 01:15:55;;;;;;;23.20;8.90;;;;;;;;;;6267106;22;20231;-83
2022/10/04 01:18:32;;;;;;;22.43;8.23;;;;;;;;;;6268272;22;20224;-83
2022/10/04 01:21:01;;;;;;;14.87;7.27;;;;;;;;;;6268911;22;20193;-83
2022/10/04 01:23:46;;;;;;;22.83;8.23;;;;;;;;;;6267206;22;20703;-84
2022/10/04 01:26:33;;;;;;;21.80;7.50;;;;;;;;;;6266830;22;20173;-84
2022/10/04 01:29:03;;;;;;;14.10;7.57;;;;;;;;;;6241023;22;20212;-84
2022/10/04 01:31:32;;;;;;;14.17;7.27;;;;;;;;;;6242120;22;20169;-84
2022/10/04 01:34:00;;;;;;;19.77;7.93;;;;;;;;;;6268242;22;20178;-85
2022/10/04 01:36:27;;;;;;;13.50;7.33;;;;;;;;;;6266915;22;20719;-83
2022/10/04 01:38:58;;;;;;;14.67;7.47;;;;;;;;;;6267908;22;20193;-83
2022/10/04 01:41:29;;;;;;;16.47;7.63;;;;;;;;;;6268562;22;20186;-83
2022/10/04 01:43:59;;;;;;;18.43;7.50;;;;;;;;;;6268464;22;20660;-83
2022/10/04 01:46:31;;;;;;;18.23;8.27;;;;;;;;;;6270192;22;20658;-83
2022/10/04 01:49:01;;;;;;;22.73;7.43;;;;;;;;;;6267908;22;20200;-83
2022/10/04 01:51:31;;;;;;;18.17;8.37;;;;;;;;;;6268318;22;20176;-83
2022/10/04 01:54:01;;;;;;;25.87;8.83;;;;;;;;;;6266956;22;20230;-83
2022/10/04 01:56:32;;;;;;;20.87;8.30;;;;;;;;;;6240695;22;20174;-83
2022/10/04 01:59:01;;;;;;;20.50;7.83;;;;;;;;;;6240874;22;20173;-83
2022/10/04 02:01:32;;;;;;;18.63;8.20;;;;;;;;;;6240730;22;21081;-83
2022/10/04 02:04:01;;;;;;;15.00;7.60;;;;;;;;;;6241635;22;20200;-83
2022/10/04 02:06:32;;;;;;;14.67;7.70;;;;;;;;;;6268296;22;20178;-82
2022/10/04 02:08:59;;;;;;;15.10;7.83;;;;;;;;;;6267842;22;20176;-83
2022/10/04 02:11:30;;;;;;;17.43;7.70;;;;;;;;;;6243133;22;20628;-82
2022/10/04 02:13:59;;;;;;;18.07;7.87;;;;;;;;;;6242741;22;20177;-83
2022/10/04 02:16:26;;;;;;;20.17;8.13;;;;;;;;;;6268872;22;20667;-82
2022/10/04 02:18:57;;;;;;;14.30;7.83;;;;;;;;;;6242010;22;20205;-83
2022/10/04 02:21:25;;;;;;;12.73;7.43;;;;;;;;;;6269949;22;20186;-82
2022/10/04 02:23:52;;;;;;;16.20;7.20;;;;;;;;;;6268993;22;20235;-82
2022/10/04 02:26:20;;;;;;;13.20;6.57;;;;;;;;;;6269352;22;20177;-82
2022/10/04 02:28:48;;;;;;;18.30;7.40;;;;;;;;;;6241847;22;20204;-82
2022/10/04 02:34:02;;;;;;;16.33;7.90;;;;;;;;;;6269288;22;20223;-83
2022/10/04 02:36:32;;;;;;;11.73;6.77;;;;;;;;;;6252481;22;20268;-81
2022/10/04 02:39:02;;;;;;;13.73;7.43;;;;;;;;;;6269978;22;20173;-83
2022/10/04 02:41:31;;;;;;;16.50;7.03;;;;;;;;;;6269237;22;20204;-81
2022/10/04 02:44:04;;;;;;;22.77;8.33;;;;;;;;;;6268951;22;20181;-82
2022/10/04 02:46:34;;;;;;;17.37;7.17;;;;;;;;;;6268919;22;20165;-83
2022/10/04 02:49:07;;;;;;;15.27;8.20;;;;;;;;;;6270267;22;20162;-82
2022/10/04 02:51:39;;;;;;;11.77;6.37;;;;;;;;;;6267628;22;20653;-82
2022/10/04 02:54:09;;;;;;;14.10;7.00;;;;;;;;;;6268638;22;20497;-79
2022/10/04 02:56:38;;;;;;;15.30;6.40;;;;;;;;;;6268204;22;20173;-81
2022/10/04 02:59:07;;;;;;;12.20;6.77;;;;;;;;;;6268790;22;20218;-82
2022/10/04 03:01:43;;;;;;;15.13;7.00;;;;;;;;;;6268425;22;20189;-81
2022/10/04 03:04:15;;;;;;;15.47;7.23;;;;;;;;;;6268505;22;20173;-82
2022/10/04 03:06:44;;;;;;;18.43;7.67;;;;;;;;;;6268787;22;20177;-82
2022/10/04 03:09:12;;;;;;;24.53;7.77;;;;;;;;;;6269549;22;20197;-82
2022/10/04 03:11:40;;;;;;;12.80;7.07;;;;;;;;;;6266045;22;20170;-82
2022/10/04 03:14:09;;;;;;;28.93;10.03;;;;;;;;;;6266737;22;20187;-78
2022/10/04 03:16:38;;;;;;;16.07;8.50;;;;;;;;;;6268052;22;20243;-79
2022/10/04 03:19:07;;;;;;;25.10;7.83;;;;;;;;;;6268810;22;20951;-79
2022/10/04 03:21:36;;;;;;;27.50;7.07;;;;;;;;;;6268088;22;20204;-79
2022/10/04 03:24:05;;;;;;;12.80;7.00;;;;;;;;;;6268579;22;20173;-78
2022/10/04 03:29:29;;;;;;;12.17;6.53;;;;;;;;;;6266674;22;20668;-79
2022/10/04 03:31:57;;;;;;;14.60;7.00;;;;;;;;;;6269396;22;20174;-79
2022/10/04 03:34:25;;;;;;;19.17;8.00;;;;;;;;;;6268216;22;20711;-79
2022/10/04 03:36:58;;;;;;;23.93;7.67;;;;;;;;;;6268833;22;20200;-79
2022/10/04 03:39:28;;;;;;;16.73;7.67;;;;;;;;;;6268199;22;20181;-79
2022/10/04 03:41:57;;;;;;;15.87;7.83;;;;;;;;;;6268825;22;20197;-78
2022/10/04 03:44:26;;;;;;;21.77;7.60;;;;;;;;;;6268162;22;20209;-79
2022/10/04 03:46:53;;;;;;;18.50;7.83;;;;;;;;;;6267971;22;21052;-78
2022/10/04 03:49:26;;;;;;;13.97;7.33;;;;;;;;;;6268981;22;20181;-79
2022/10/04 03:51:55;;;;;;;18.17;7.80;;;;;;;;;;6267468;22;20236;-79
2022/10/04 03:54:26;;;;;;;13.37;6.93;;;;;;;;;;6270228;22;20185;-79
2022/10/04 03:56:54;;;;;;;13.93;7.10;;;;;;;;;;6269126;22;20212;-79
2022/10/04 03:59:24;;;;;;;12.20;7.07;;;;;;;;;;6268767;22;20181;-77
2022/10/04 04:02:00;;;;;;;14.93;6.93;;;;;;;;;;6267708;22;20194;-78
2022/10/04 04:04:30;;;;;;;10.80;6.60;;;;;;;;;;6269500;22;20165;-79
2022/10/04 04:07:02;;;;;;;11.80;7.00;;;;;;;;;;6241752;22;20235;-79
2022/10/04 04:09:36;;;;;;;12.63;7.00;;;;;;;;;;6268100;22;20197;-78
2022/10/04 04:12:06;;;;;;;14.40;7.57;;;;;;;;;;6268963;22;20158;-76
2022/10/04 04:14:34;;;;;;;13.33;6.87;;;;;;;;;;6268482;22;20185;-79
2022/10/04 04:17:17;;;;;;;16.97;7.63;;;;;;;;;;6269366;22;20212;-76
2022/10/04 04:19:46;;;;;;;12.37;7.00;;;;;;;;;;6240547;22;20178;-78
2022/10/04 04:22:18;;;;;;;13.33;6.87;;;;;;;;;;6268046;22;20694;-79
2022/10/04 04:24:47;;;;;;;15.77;7.57;;;;;;;;;;6268633;22;20173;-78
2022/10/04 04:27:17;;;;;;;16.10;8.27;;;;;;;;;;6241724;22;20198;-78
2022/10/04 04:29:47;;;;;;;16.03;7.60;;;;;;;;;;6268687;22;20257;-77
2022/10/04 04:32:17;;;;;;;12.67;6.87;;;;;;;;;;6242401;22;20165;-77
2022/10/04 04:34:51;;;;;;;13.33;6.97;;;;;;;;;;6241185;22;20187;-77
2022/10/04 04:37:23;;;;;;;14.53;7.03;;;;;;;;;;6265611;22;20957;-78
2022/10/04 04:39:54;;;;;;;13.90;7.17;;;;;;;;;;6298872;22;20163;-78
2022/10/04 04:42:23;;;;;;;12.47;6.60;;;;;;;;;;6298908;22;20250;-78
2022/10/04 04:44:52;;;;;;;12.77;6.60;;;;;;;;;;6300099;22;20199;-78
2022/10/04 04:47:25;;;;;;;11.60;7.07;;;;;;;;;;6301017;22;20204;-77
2022/10/04 04:49:53;;;;;;;10.37;6.40;;;;;;;;;;6272005;22;20189;-77
2022/10/04 04:52:26;;;;;;;9.33;5.97;;;;;;;;;;6299226;22;20177;-77
2022/10/04 04:54:53;;;;;;;13.40;6.70;;;;;;;;;;6299068;22;20573;-78
2022/10/04 04:57:21;;;;;;;12.73;6.73;;;;;;;;;;6298324;22;20193;-76
2022/10/04 04:59:50;;;;;;;10.67;6.27;;;;;;;;;;6298433;22;20183;-76
2022/10/04 05:02:27;;;;;;;13.43;6.67;;;;;;;;;;6271242;22;20200;-76
2022/10/04 05:05:09;;;;;;;10.97;7.17;;;;;;;;;;6291190;22;20164;-77
2022/10/04 05:07:41;;;;;;;14.30;7.13;;;;;;;;;;6299024;22;20224;-79
2022/10/04 05:10:20;;;;;;;11.00;7.23;;;;;;;;;;6299491;22;20172;-79
2022/10/04 05:12:47;;;;;;;16.50;7.87;;;;;;;;;;6299132;22;20160;-79
2022/10/04 05:15:15;;;;;;;12.77;7.37;;;;;;;;;;6299117;22;20265;-79
2022/10/04 05:17:44;;;;;;;11.27;7.03;;;;;;;;;;6299921;22;20243;-78
2022/10/04 05:20:12;;;;;;;17.20;6.57;;;;;;;;;;6300457;22;20176;-79
2022/10/04 05:22:42;;;;;;;10.50;5.70;;;;;;;;;;6297677;22;20189;-79
2022/10/04 05:25:11;;;;;;;9.83;6.17;;;;;;;;;;6269953;22;20235;-79
2022/10/04 05:27:41;;;;;;;11.50;5.77;;;;;;;;;;6298272;22;20976;-78
2022/10/04 05:30:09;;;;;;;8.93;5.53;;;;;;;;;;6298180;22;20173;-79
2022/10/04 05:32:41;;;;;;;11.90;5.80;;;;;;;;;;6297524;22;20164;-80
2022/10/04 05:35:16;;;;;;;15.10;6.00;;;;;;;;;;6295981;22;20176;-80
2022/10/04 05:37:52;;;;;;;19.60;6.67;;;;;;;;;;6268457;22;20217;-79
2022/10/04 05:40:28;;;;;;;9.37;5.70;;;;;;;;;;6238674;22;20177;-78
2022/10/04 05:42:58;;;;;;;8.67;5.53;;;;;;;;;;6239454;22;20189;-79
2022/10/04 05:45:27;;;;;;;9.30;5.83;;;;;;;;;;6267688;22;20177;-79
2022/10/04 05:50:59;;;;;;;14.87;6.30;;;;;;;;;;6192308;22;20184;-80
2022/10/04 05:53:32;;;;;;;10.50;6.20;;;;;;;;;;6266516;22;20181;-80
2022/10/04 05:56:05;;;;;;;10.70;6.50;;;;;;;;;;6240419;22;20173;-80
2022/10/04 05:58:47;;;;;;;10.30;6.90;;;;;;;;;;6268629;22;20283;-80
2022/10/04 06:01:22;;;;;;;14.80;6.43;;;;;;;;;;6266941;22;20718;-80
2022/10/04 06:04:02;;;;;;;11.60;6.20;;;;;;;;;;6271251;22;20165;-79
2022/10/04 06:06:35;;;;;;;9.03;5.20;;;;;;;;;;6270685;22;20216;-79
2022/10/04 06:09:14;;;;;;;9.57;5.43;;;;;;;;;;6269909;22;20205;-79
2022/10/04 06:11:50;;;;;;;10.40;5.17;;;;;;;;;;6267221;22;20172;-79
2022/10/04 06:14:36;;;;;;;8.73;5.20;;;;;;;;;;6241900;22;20170;-79
2022/10/04 06:17:21;;;;;;;10.70;5.83;;;;;;;;;;6240667;22;20263;-79
2022/10/04 06:19:59;;;;;;;13.03;6.03;;;;;;;;;;6270715;22;20173;-80
2022/10/04 06:22:27;;;;;;;10.83;5.80;;;;;;;;;;6270620;22;20182;-79
2022/10/04 06:24:58;;;;;;;10.03;5.30;;;;;;;;;;6271130;22;20184;-78
2022/10/04 06:27:30;;;;;;;14.30;5.87;;;;;;;;;;6271736;22;20194;-79
2022/10/04 06:30:01;;;;;;;9.07;5.20;;;;;;;;;;6244961;22;20250;-79
2022/10/04 06:32:40;;;;;;;9.50;5.73;;;;;;;;;;6271113;22;20169;-80
2022/10/04 06:35:16;;;;;;;8.53;5.37;;;;;;;;;;6270070;22;20158;-79
2022/10/04 06:37:51;;;;;;;10.20;5.30;;;;;;;;;;6267475;22;20680;-79
2022/10/04 06:40:40;;;;;;;9.33;5.43;;;;;;;;;;6241895;22;20181;-79
2022/10/04 06:43:27;;;;;;;9.33;5.47;;;;;;;;;;6267962;22;20676;-80
2022/10/04 06:46:05;;;;;;;8.43;5.60;;;;;;;;;;6268949;22;20663;-79
2022/10/04 06:48:53;;;;;;;11.57;5.57;;;;;;;;;;6266684;22;20224;-80
2022/10/04 06:51:24;;;;;;;9.87;5.57;;;;;;;;;;6270072;22;20170;-80
2022/10/04 06:54:00;;;;;;;8.60;5.40;;;;;;;;;;6270325;22;20889;-80
2022/10/04 06:56:37;;;;;;;10.80;5.27;;;;;;;;;;6269260;22;20212;-83
2022/10/04 07:02:13;;;;;;;13.27;6.03;;;;;;;;;;6271607;22;20196;-80
2022/10/04 07:04:45;;;;;;;14.47;7.33;;;;;;;;;;6270816;22;20169;-80
2022/10/04 07:07:25;;;;;;;15.07;6.77;;;;;;;;;;6271698;22;20201;-81
2022/10/04 07:09:55;;;;;;;8.73;5.33;;;;;;;;;;6273852;22;20165;-79
2022/10/04 07:12:25;;;;;;;13.63;5.80;;;;;;;;;;6270686;22;20257;-79
2022/10/04 07:14:54;;;;;;;11.10;4.97;;;;;;;;;;6271564;22;20178;-78
2022/10/04 07:17:25;;;;;;;12.50;5.80;;;;;;;;;;6270025;22;20228;-80
2022/10/04 07:19:54;;;;;;;12.73;6.00;;;;;;;;;;6271562;22;20166;-80
2022/10/04 07:22:26;;;;;;;11.90;5.50;;;;;;;;;;6272271;22;20197;-78
2022/10/04 07:24:58;;;;;;;11.90;5.37;;;;;;;;;;6271074;22;20158;-79
2022/10/04 07:27:29;;;;;;;10.70;5.97;;;;;;;;;;6270841;22;20197;-79
2022/10/04 07:29:57;;;;;;;10.40;5.10;;;;;;;;;;6268277;22;20173;-80
2022/10/04 07:32:25;;;;;;;11.33;5.57;;;;;;;;;;6268847;22;20259;-80
2022/10/04 07:34:55;;;;;;;11.03;5.97;;;;;;;;;;6267005;22;20181;-79
2022/10/04 07:37:23;;;;;;;12.60;6.10;;;;;;;;;;6269954;22;20206;-79
2022/10/04 07:39:53;;;;;;;14.37;5.93;;;;;;;;;;6270851;22;20181;-80
2022/10/04 07:42:23;;;;;;;10.67;6.00;;;;;;;;;;6269362;22;20178;-79
2022/10/04 07:45:01;;;;;;;17.83;6.30;;;;;;;;;;6268867;22;20520;-79
2022/10/04 07:47:29;;;;;;;15.77;5.77;;;;;;;;;;6269486;22;20197;-80
2022/10/04 07:49:58;;;;;;;14.37;6.60;;;;;;;;;;6269893;22;20184;-80
2022/10/04 07:52:43;;;;;;;17.00;6.20;;;;;;;;;;6216543;22;20209;-79
2022/10/04 07:55:16;;;;;;;11.67;5.73;;;;;;;;;;6266616;22;20177;-79
2022/10/04 07:57:48;;;;;;;13.77;6.63;;;;;;;;;;6265309;22;20461;-79
2022/10/04 08:00:19;;;;;;;12.50;5.77;;;;;;;;;;6267183;22;20553;-79
2022/10/04 08:02:53;;;;;;;10.67;5.87;;;;;;;;;;6231379;22;20206;-80
2022/10/04 08:05:24;;;;;;;9.80;5.90;;;;;;;;;;6257901;22;20251;-79
2022/10/04 08:08:00;;;;;;;16.07;6.50;;;;;;;;;;6263540;22;20200;-79
2022/10/04 08:10:32;;;;;;;18.70;6.70;;;;;;;;;;6232213;22;20508;-79
2022/10/04 08:13:05;;;;;;;18.87;7.20;;;;;;;;;;6240048;22;20287;-79
2022/10/04 08:15:38;;;;;;;17.23;7.13;;;;;;;;;;6243977;22;20201;-79
2022/10/04 08:18:27;;;;;;;10.87;7.10;;;;;;;;;;6268293;22;20198;-80
2022/10/04 08:20:57;;;;;;;10.57;6.90;;;;;;;;;;6266709;22;20563;-79
2022/10/04 08:26:08;;;;;;;14.30;6.33;;;;;;;;;;6274898;22;20671;-79
2022/10/04 08:31:35;;;;;;;18.43;6.70;;;;;;;;;;6233010;22;20527;-80
2022/10/04 08:34:11;;;;;;;16.93;6.80;;;;;;;;;;6270725;22;20177;-80
2022/10/04 08:36:43;;;;;;;13.83;7.07;;;;;;;;;;6268948;22;20189;-84
2022/10/04 08:39:20;;;;;;;14.60;6.37;;;;;;;;;;6270108;22;20248;-85
2022/10/04 08:42:07;;;;;;;14.63;6.70;;;;;;;;;;6242267;22;20185;-85
2022/10/04 08:45:06;;;;;;;10.60;6.37;;;;;;;;;;6269178;22;20180;-83
2022/10/04 08:47:53;;;;;;;11.57;6.40;;;;;;;;;;6269257;22;20225;-84
2022/10/04 08:50:51;;;;;;;17.47;6.67;;;;;;;;;;6267883;22;20195;-83
2022/10/04 08:53:42;;;;;;;12.13;6.60;;;;;;;;;;6150000;23;20180;-84
2022/10/04 08:56:17;;;;;;;11.33;6.27;;;;;;;;;;6264269;22;20181;-85
2022/10/04 08:59:05;;;;;;;13.20;6.37;;;;;;;;;;6268651;22;20201;-84
2022/10/04 09:01:45;;;;;;;15.90;6.53;;;;;;;;;;6267284;22;20166;-85
2022/10/04 09:04:37;;;;;;;10.80;6.00;;;;;;;;;;6268867;22;20193;-84
2022/10/04 09:07:13;;;;;;;13.53;6.73;;;;;;;;;;6269434;22;20190;-84
2022/10/04 09:09:56;;;;;;;15.00;6.33;;;;;;;;;;6271765;22;20158;-84
2022/10/04 09:12:43;;;;;;;13.67;6.37;;;;;;;;;;6238262;22;20196;-84
2022/10/04 09:15:38;;;;;;;14.77;6.73;;;;;;;;;;6264561;22;20170;-78
2022/10/04 09:18:20;;;;;;;17.73;7.07;;;;;;;;;;6243393;22;21036;-80
2022/10/04 09:20:51;;;;;;;16.63;6.13;;;;;;;;;;6265015;22;20175;-79
2022/10/04 09:23:27;;;;;;;15.90;7.07;;;;;;;;;;6236131;22;20208;-80
2022/10/04 09:28:42;;;;;;;14.33;5.40;;;;;;;;;;6262849;22;20307;-80
2022/10/04 09:31:20;;;;;;;15.60;4.90;;;;;;;;;;6264888;22;20165;-80
2022/10/04 09:33:53;;;;;;;17.93;6.10;;;;;;;;;;6241470;22;20170;-79
2022/10/04 09:36:28;;;;;;;20.23;6.50;;;;;;;;;;6243414;22;20703;-80
2022/10/04 09:39:11;;;;;;;15.30;5.47;;;;;;;;;;6271115;22;20150;-79
2022/10/04 09:41:42;;;;;;;16.97;5.50;;;;;;;;;;6271067;22;20190;-79
2022/10/04 09:44:45;;;;;;;13.70;5.20;;;;;;;;;;6265922;22;20259;-80
2022/10/04 09:47:36;;;;;;;12.37;5.37;;;;;;;;;;6174362;23;20195;-79
2022/10/04 09:50:19;;;;;;;12.53;5.03;;;;;;;;;;6263646;22;20228;-80
2022/10/04 09:52:50;;;;;;;13.00;4.87;;;;;;;;;;6218260;22;20184;-78
2022/10/04 09:55:42;;;;;;;12.57;4.77;;;;;;;;;;6240993;22;20177;-79
2022/10/04 09:58:30;;;;;;;8.43;4.40;;;;;;;;;;6246306;22;20193;-80
2022/10/04 10:01:07;;;;;;;11.83;4.47;;;;;;;;;;6259508;22;20200;-79
2022/10/04 10:03:55;;;;;;;11.60;4.53;;;;;;;;;;6267455;22;20272;-78
2022/10/04 10:06:27;;;;;;;11.53;4.43;;;;;;;;;;6228500;22;20178;-79
2022/10/04 10:09:12;;;;;;;11.73;4.30;;;;;;;;;;6242405;22;20174;-80
2022/10/04 10:14:39;;;;;;;10.30;3.90;;;;;;;;;;6269025;22;20510;-80
2022/10/04 10:17:16;;;;;;;8.00;3.73;;;;;;;;;;6271021;22;20198;-77
2022/10/04 10:19:49;;;;;;;15.10;3.73;;;;;;;;;;6267806;22;20174;-77
2022/10/04 10:22:30;;;;;;;13.63;4.40;;;;;;;;;;6217583;22;20240;-78
2022/10/04 10:25:15;;;;;;;10.60;4.03;;;;;;;;;;6269254;22;20177;-80
2022/10/04 10:27:58;;;;;;;8.87;3.20;;;;;;;;;;6267444;22;20208;-79
2022/10/04 10:30:30;;;;;;;14.67;3.83;;;;;;;;;;6267841;22;20178;-80
2022/10/04 10:33:31;;;;;;;12.43;3.60;;;;;;;;;;6271172;22;20201;-81
2022/10/04 10:36:09;;;;;;;5.90;3.03;;;;;;;;;;6272120;22;20181;-79
2022/10/04 10:38:45;;;;;;;10.80;2.63;;;;;;;;;;6270688;22;20193;-79
2022/10/04 10:41:29;;;;;;;6.97;2.77;;;;;;;;;;6270295;22;20173;-78
2022/10/04 10:44:12;;;;;;;8.17;2.83;;;;;;;;;;6270102;22;20213;-80
2022/10/04 10:46:51;;;;;;;8.10;2.87;;;;;;;;;;6273841;22;20232;-81
2022/10/04 10:49:27;;;;;;;8.50;3.17;;;;;;;;;;6267136;22;20181;-80
2022/10/04 10:52:09;;;;;;;7.07;2.93;;;;;;;;;;6271832;22;20582;-79
2022/10/04 10:55:00;;;;;;;8.80;3.23;;;;;;;;;;6174678;23;20175;-80
2022/10/04 10:57:44;;;;;;;9.20;2.27;;;;;;;;;;6268414;22;20715;-79
2022/10/04 11:00:19;;;;;;;9.20;2.50;;;;;;;;;;6267774;22;20164;-80
2022/10/04 11:03:05;;;;;;;6.03;2.63;;;;;;;;;;6271894;22;20181;-79
2022/10/04 11:05:47;;;;;;;5.77;2.57;;;;;;;;;;6270017;22;20726;-80
2022/10/04 11:08:26;;;;;;;11.53;2.47;;;;;;;;;;6251147;22;20220;-81
2022/10/04 11:11:08;;;;;;;5.57;2.57;;;;;;;;;;6270153;22;20168;-81
2022/10/04 11:14:02;;;;;;;8.33;2.70;;;;;;;;;;6239646;22;20352;-80
2022/10/04 11:16:40;;;;;;;6.43;2.60;;;;;;;;;;6268239;22;20659;-79
2022/10/04 11:19:30;;;;;;;6.13;2.70;;;;;;;;;;6271202;22;20169;-79
2022/10/04 11:22:24;;;;;;;6.33;2.60;;;;;;;;;;6262466;22;20177;-79
2022/10/04 11:25:04;;;;;;;3.87;2.13;;;;;;;;;;6273008;22;20216;-79
2022/10/04 11:27:38;;;;;;;5.00;2.40;;;;;;;;;;6271955;22;20205;-79
2022/10/04 11:30:22;;;;;;;6.67;2.43;;;;;;;;;;6273448;22;20161;-80
2022/10/04 11:33:08;;;;;;;8.23;3.10;;;;;;;;;;6271499;22;20237;-81
2022/10/04 11:38:53;;;;;;;10.27;2.40;;;;;;;;;;6274525;22;20518;-82
2022/10/04 11:41:29;;;;;;;7.23;3.10;;;;;;;;;;6249459;22;20200;-80
2022/10/04 11:44:36;;;;;;;4.30;2.13;;;;;;;;;;6272638;22;20199;-81
2022/10/04 11:47:08;;;;;;;8.47;2.13;;;;;;;;;;6272428;22;20193;-81
2022/10/04 11:49:45;;;;;;;5.10;2.50;;;;;;;;;;6274681;22;20158;-81
2022/10/04 11:52:28;;;;;;;8.30;2.30;;;;;;;;;;6272128;22;20560;-80
2022/10/04 11:55:16;;;;;;;5.07;2.10;;;;;;;;;;6270245;22;20165;-81
2022/10/04 11:58:02;;;;;;;6.07;2.50;;;;;;;;;;6274863;22;20196;-80
2022/10/04 12:00:47;;;;;;;6.20;2.00;;;;;;;;;;6250689;22;20234;-80
2022/10/04 12:06:21;;;;;;;5.97;2.30;;;;;;;;;;6276206;22;20177;-80
2022/10/04 12:09:04;;;;;;;4.57;2.07;;;;;;;;;;6272248;22;20181;-82
2022/10/04 12:15:07;;;;;;;6.10;2.17;;;;;;;;;;6275087;22;20151;-84
2022/10/04 12:18:04;;;;;;;7.20;2.37;;;;;;;;;;6270331;22;20190;-84
2022/10/04 12:24:04;;;;;;;6.40;2.27;;;;;;;;;;6274466;22;20196;-80
2022/10/04 12:26:53;;;;;;;4.23;2.10;;;;;;;;;;6249629;22;20245;-82
2022/10/04 12:29:36;;;;;;;5.77;2.33;;;;;;;;;;6273414;22;20186;-81
2022/10/04 12:32:12;;;;;;;5.27;2.20;;;;;;;;;;6199355;22;20188;-82
2022/10/04 12:34:46;;;;;;;9.27;2.33;;;;;;;;;;6247331;22;20219;-81
2022/10/04 12:37:40;;;;;;;6.60;2.10;;;;;;;;;;6272057;22;20538;-81
2022/10/04 12:48:52;;;;;;;5.70;2.00;;;;;;;;;;6270040;22;20379;-80
2022/10/04 12:51:58;;;;;;;5.07;2.30;;;;;;;;;;6260871;22;20268;-81
2022/10/04 12:54:38;;;;;;;6.60;2.10;;;;;;;;;;6269269;22;20223;-81
2022/10/04 13:00:27;;;;;;;6.00;1.80;;;;;;;;;;6257441;22;20181;-81
2022/10/04 13:06:14;;;;;;;6.67;2.60;;;;;;;;;;6210865;22;20227;-80
2022/10/04 13:20:53;;;;;;;10.90;2.37;;;;;;;;;;6269696;22;20184;-80
2022/10/04 13:23:31;;;;;;;3.07;2.20;;;;;;;;;;6271264;22;20201;-82
2022/10/04 13:26:07;;;;;;;4.97;2.50;;;;;;;;;;6270427;22;20255;-83
2022/10/04 13:28:43;;;;;;;5.30;2.40;;;;;;;;;;6262878;22;20200;-81
2022/10/04 13:31:31;;;;;;;13.53;2.60;;;;;;;;;;6300676;22;20199;-82
2022/10/04 13:34:13;;;;;;;9.33;2.37;;;;;;;;;;6301781;22;20161;-83
2022/10/04 13:37:05;;;;;;;6.30;2.43;;;;;;;;;;6278676;22;20221;-83
2022/10/04 13:39:58;;;;;;;5.27;2.20;;;;;;;;;;6304889;22;20161;-82
2022/10/04 13:42:52;;;;;;;6.30;2.87;;;;;;;;;;6306864;22;20176;-81
2022/10/04 13:45:46;;;;;;;8.90;3.10;;;;;;;;;;6275408;22;20628;-81
2022/10/04 14:00:38;;;;;;;4.37;2.60;;;;;;;;;;6299198;22;20200;-84
2022/10/04 14:03:18;;;;;;;7.60;2.60;;;;;;;;;;6304338;22;20173;-81
2022/10/04 14:06:11;;;;;;;5.33;2.40;;;;;;;;;;6277312;22;20173;-83
2022/10/04 14:09:08;;;;;;;5.30;2.60;;;;;;;;;;6306572;22;20284;-82
2022/10/04 14:12:08;;;;;;;7.60;2.57;;;;;;;;;;6309559;22;20219;-83
2022/10/04 14:14:57;;;;;;;9.30;3.20;;;;;;;;;;6305209;22;20222;-82
2022/10/04 14:17:53;;;;;;;5.47;2.47;;;;;;;;;;6280448;22;20197;-83
2022/10/04 14:20:54;;;;;;;5.80;2.57;;;;;;;;;;6303534;22;20217;-81
2022/10/04 14:23:41;;;;;;;6.83;2.33;;;;;;;;;;6306464;22;20169;-83
2022/10/04 14:26:54;;;;;;;7.53;3.13;;;;;;;;;;6311411;22;20820;-85
2022/10/04 14:29:39;;;;;;;5.87;2.10;;;;;;;;;;6154156;23;20187;-83
2022/10/04 14:32:23;;;;;;;5.63;2.37;;;;;;;;;;6278823;22;20185;-82
2022/10/04 14:34:57;;;;;;;7.13;2.77;;;;;;;;;;6209958;23;20175;-83
2022/10/04 14:37:54;;;;;;;7.33;2.30;;;;;;;;;;6261458;22;20219;-81
2022/10/04 14:40:37;;;;;;;5.50;2.17;;;;;;;;;;6271482;22;20174;-81
2022/10/04 14:43:14;;;;;;;5.20;2.30;;;;;;;;;;6272042;22;20253;-82
2022/10/04 14:45:45;;;;;;;8.80;2.10;;;;;;;;;;6271672;22;20209;-81
2022/10/04 14:48:24;;;;;;;3.63;1.80;;;;;;;;;;6273391;22;20227;-80
2022/10/04 14:50:57;;;;;;;7.17;2.23;;;;;;;;;;6294395;22;20211;-80
2022/10/04 14:53:34;;;;;;;5.37;2.17;;;;;;;;;;6293108;22;20150;-80
2022/10/04 14:56:12;;;;;;;3.87;1.90;;;;;;;;;;6294563;22;20196;-81
2022/10/04 14:59:00;;;;;;;3.27;2.00;;;;;;;;;;6268545;22;20574;-80
2022/10/04 15:01:31;;;;;;;5.90;1.90;;;;;;;;;;6264931;22;20252;-80
2022/10/04 15:04:14;;;;;;;4.70;1.93;;;;;;;;;;6247147;22;20205;-79
2022/10/04 15:06:47;;;;;;;5.53;1.97;;;;;;;;;;6269124;22;20198;-79
2022/10/04 15:09:34;;;;;;;3.17;1.80;;;;;;;;;;6245475;22;20278;-81
2022/10/04 15:12:18;;;;;;;10.23;2.00;;;;;;;;;;6272086;22;20595;-81
2022/10/04 15:15:04;;;;;;;6.23;1.83;;;;;;;;;;6273046;22;20624;-80
2022/10/04 15:17:35;;;;;;;3.80;1.63;;;;;;;;;;6271392;22;20198;-79
2022/10/04 15:23:10;;;;;;;3.93;1.50;;;;;;;;;;6245328;22;20532;-81
2022/10/04 15:25:39;;;;;;;4.63;1.87;;;;;;;;;;6242969;22;20194;-80
2022/10/04 15:28:13;;;;;;;5.33;2.03;;;;;;;;;;6271161;22;20197;-80
2022/10/04 15:33:41;;;;;;;5.10;1.97;;;;;;;;;;6212036;22;20185;-80
2022/10/04 15:36:25;;;;;;;5.27;1.40;;;;;;;;;;6242985;22;20669;-80
2022/10/04 15:38:56;;;;;;;6.23;1.73;;;;;;;;;;6269745;22;20169;-81
2022/10/04 15:41:27;;;;;;;6.57;1.90;;;;;;;;;;6270758;22;20182;-81
2022/10/04 15:44:10;;;;;;;3.80;1.70;;;;;;;;;;6273602;22;20168;-80
2022/10/04 15:46:46;;;;;;;3.23;1.80;;;;;;;;;;6272100;22;20185;-80
2022/10/04 15:49:23;;;;;;;9.23;1.90;;;;;;;;;;6246164;22;20182;-80
2022/10/04 15:54:50;;;;;;;6.43;2.60;;;;;;;;;;6266089;22;20190;-81
2022/10/04 15:57:26;;;;;;;14.80;7.33;;;;;;;;;;6271603;22;20197;-80
2022/10/04 15:59:54;;;;;;;12.63;6.90;;;;;;;;;;6244155;22;20505;-80
2022/10/04 16:02:40;;;;;;;15.97;8.03;;;;;;;;;;6269637;22;20387;-80
2022/10/04 16:05:15;;;;;;;14.13;5.63;;;;;;;;;;6270450;22;20286;-80
2022/10/04 16:07:53;;;;;;;8.10;3.40;;;;;;;;;;6271879;22;20229;-80
2022/10/04 16:10:22;;;;;;;6.00;2.43;;;;;;;;;;6271291;22;20165;-80
2022/10/04 16:13:07;;;;;;;13.70;4.67;;;;;;;;;;6270351;22;20177;-80
2022/10/04 16:15:36;;;;;;;9.43;4.40;;;;;;;;;;6242834;22;20652;-79
2022/10/04 16:18:34;;;;;;;7.40;2.70;;;;;;;;;;6269493;22;20200;-80
2022/10/04 16:21:14;;;;;;;6.87;2.83;;;;;;;;;;6267750;22;20178;-79
2022/10/04 16:23:42;;;;;;;7.53;3.20;;;;;;;;;;6268813;22;20224;-79
2022/10/04 16:26:11;;;;;;;7.27;3.33;;;;;;;;;;6217708;22;20744;-79
2022/10/04 16:28:46;;;;;;;6.57;2.80;;;;;;;;;;6272078;22;20285;-80
2022/10/04 16:31:18;;;;;;;7.10;3.37;;;;;;;;;;6270304;22;20185;-80
2022/10/04 16:33:56;;;;;;;6.77;2.70;;;;;;;;;;6269626;22;20158;-80
2022/10/04 16:36:30;;;;;;;6.20;2.60;;;;;;;;;;6267744;22;20673;-80
2022/10/04 16:41:53;;;;;;;12.20;2.87;;;;;;;;;;6274261;22;20158;-80
2022/10/04 16:44:31;;;;;;;6.27;3.10;;;;;;;;;;6283189;22;20607;-79
2022/10/04 16:47:02;;;;;;;9.37;3.27;;;;;;;;;;6245333;22;20280;-78
2022/10/04 16:49:33;;;;;;;11.73;6.20;;;;;;;;;;6271968;22;20181;-79
2022/10/04 16:52:08;;;;;;;13.57;6.50;;;;;;;;;;6271403;22;20181;-79
2022/10/04 16:54:59;;;;;;;13.00;5.83;;;;;;;;;;6271673;22;20162;-79